This is the latest recevied weather packets stored in our database for station/object WX2NJ. If no packets are shown the sender has not sent any weather packets the latest 10 day(s).
| Time | Temp. | Humidity | Pressure | Rain* | Wind** | Luminosity | Snow |
|---|---|---|---|---|---|---|---|
| 1777824680 | 14.44° C | 34% | 1016.1 hPa | 0 mm | - | 322 W/m² | - |
| 1777824378 | 13.33° C | 35% | 1016.3 hPa | 0 mm | - | 221 W/m² | - |
| 1777824073 | 13.33° C | 37% | 1016.1 hPa | 0 mm | - | 418 W/m² | - |
| 1777823770 | 13.33° C | 34% | 1016.2 hPa | 0 mm | - | 223 W/m² | - |
| 1777823467 | 13.33° C | 39% | 1016.4 hPa | 0 mm | - | 445 W/m² | - |
| 1777823164 | 12.78° C | 39% | 1016.6 hPa | 0 mm | - | 444 W/m² | - |
| 1777822862 | 12.78° C | 37% | 1016.4 hPa | 0 mm | - | 213 W/m² | - |
| 1777822559 | 12.22° C | 41% | 1016.6 hPa | 0 mm | - | 164 W/m² | - |
| 1777822256 | 13.89° C | 38% | 1016.5 hPa | 0 mm | - | 148 W/m² | - |
| 1777821954 | 13.33° C | 38% | 1016.4 hPa | 0 mm | - | 177 W/m² | - |
| 1777821652 | 13.33° C | 38% | 1016.3 hPa | 0 mm | - | 328 W/m² | - |
| 1777821350 | 12.22° C | 39% | 1016.7 hPa | 0 mm | - | 257 W/m² | - |
| 1777821046 | 13.89° C | 38% | 1016.4 hPa | 0 mm | - | 160 W/m² | - |
| 1777820743 | 13.33° C | 39% | 1016.4 hPa | 0 mm | - | 273 W/m² | - |
| 1777820439 | 12.78° C | 40% | 1016.4 hPa | 0 mm | - | 193 W/m² | - |
| 1777820137 | 14.44° C | 38% | 1016.5 hPa | 0 mm | - | 147 W/m² | - |
| 1777819834 | 13.89° C | 39% | 1016.5 hPa | 0 mm | - | 265 W/m² | - |
| 1777819531 | 13.89° C | 40% | 1016.6 hPa | 0 mm | - | 220 W/m² | - |
| 1777819229 | 13.33° C | 42% | 1016.5 hPa | 0 mm | - | 209 W/m² | - |
| 1777818925 | 12.78° C | 40% | 1016.3 hPa | 0 mm | - | 150 W/m² | - |
| 1777818621 | 13.89° C | 41% | 1016.4 hPa | 0 mm | - | 241 W/m² | - |
| 1777818319 | 12.78° C | 42% | 1016.4 hPa | 0 mm | - | 136 W/m² | - |
| 1777818015 | 13.33° C | 43% | 1016.5 hPa | 0 mm | - | 191 W/m² | - |
| 1777817712 | 12.78° C | 42% | 1016.4 hPa | 0 mm | - | 143 W/m² | - |
| 1777817410 | 12.78° C | 44% | 1016.5 hPa | 0 mm | - | 221 W/m² | - |
* Rain latest hour (hover to see other rain measurements)
** Current wind speed in m/s (hover to see current wind gust speed)